Portada
METAR-TAF:

METAR-TAF

Aeropuertos :

Touggourt, Argelia

latitud: 33-07N, longitud: 006-08E, altitud: 85 m

Observación

El informe se hizo hace 48 minutos, a las 23:00 UTC
Viento 6 kt del sur-sureste
Temperatura 30°C
Humedad 27%
Presión 1017 hPa
Visibilidad 10 km o más
sin nubes por debajo de 1500 m y sin presencia de cumulonimbus.

METAR: DAUK 182300Z 16006KT CAVOK 30/09 Q1017

Hora: 00:48 (23:48 UTC)

Pronóstico

El informe se hizo hace 3 horas y 48 minutos, a las 20:00 UTC
Pronóstico válido del 18 a las 21 UTC al 19 a las 06 UTC
Viento 10 kt del sur-suroeste
Visibilidad 10 km o más
sin nubes por debajo de 1500 m y sin presencia de cumulonimbus.

TAF: DAUK 182000Z 1821/1906 20010KT CAVOK

Observaciones y pronósticos meteorológicos de más de 4000 aeropuertos (mensajes METAR y TAF).

Los puntos amarillos y rojos representan las estaciones disponibles.

Ponga el ratón en el punto deseado para ver el nombre de la estación.

Haga clic para ver las observaciones y los pronósticos meteorológicos.

Para cambiar el mapa : haga clic en los botones verdes con una cruz de color negro para hacer un zoom, en el botón verde con un guión para alejar o en las flechas verdes para mapas adyacentes.


METAR-TAF: